Time;durP1;ratioP1;P1;durP2;ratioP2;P2;SDS_P1;SDS_P2;PMS_P1;PMS_P2;Temp;Humidity;BMP_temperature;BMP_pressure;BME280_temperature;BME280_humidity;BME280_pressure;Samples;Min_cycle;Max_cycle;Signal;HPM_P1;HPM_P2
2022/06/29 00:00:21;;;;;;;5.40;2.60;;;;;;;18.86;59.09;101359.47;3572455;40;20088;-63
2022/06/29 00:02:48;;;;;;;6.25;2.75;;;;;;;18.83;58.68;101351.56;3572055;40;20182;-63
2022/06/29 00:05:18;;;;;;;3.97;2.90;;;;;;;18.79;59.83;101364.59;3568898;40;20154;-63
2022/06/29 00:07:45;;;;;;;3.85;2.60;;;;;;;18.73;59.44;101359.69;3567844;40;20045;-63
2022/06/29 00:10:13;;;;;;;3.78;2.63;;;;;;;18.69;59.19;101350.03;3570617;40;20088;-63
2022/06/29 00:12:40;;;;;;;5.18;2.63;;;;;;;18.66;59.20;101354.91;3569924;40;20360;-63
2022/06/29 00:15:07;;;;;;;4.55;2.85;;;;;;;18.61;59.06;101348.97;3571452;40;20066;-63
2022/06/29 00:17:34;;;;;;;4.35;2.72;;;;;;;18.58;59.65;101347.38;3568890;40;20097;-64
2022/06/29 00:20:03;;;;;;;5.03;2.72;;;;;;;18.50;59.42;101348.06;3570694;40;20057;-63
2022/06/29 00:22:29;;;;;;;6.50;2.95;;;;;;;18.47;60.14;101345.63;3569766;40;20122;-63
2022/06/29 00:24:56;;;;;;;4.07;3.05;;;;;;;18.44;61.21;101339.56;3570730;40;20065;-63
2022/06/29 00:27:22;;;;;;;3.85;2.75;;;;;;;18.41;60.08;101339.84;3570146;40;20130;-63
2022/06/29 00:29:48;;;;;;;5.20;2.97;;;;;;;18.33;61.78;101330.50;3571093;40;20098;-64
2022/06/29 00:32:14;;;;;;;3.55;2.78;;;;;;;18.31;60.87;101343.34;3571529;40;20053;-63
2022/06/29 00:34:39;;;;;;;5.50;3.00;;;;;;;18.27;61.65;101339.19;3571389;40;20063;-64
2022/06/29 00:37:05;;;;;;;7.03;3.30;;;;;;;18.21;60.93;101341.56;3571478;40;20075;-63
2022/06/29 00:39:32;;;;;;;5.70;3.10;;;;;;;18.15;61.83;101337.50;3569478;40;20477;-64
2022/06/29 00:41:58;;;;;;;5.80;3.13;;;;;;;18.12;61.67;101339.63;3569699;40;20076;-63
2022/06/29 00:44:25;;;;;;;8.65;3.25;;;;;;;18.09;61.63;101336.16;3571512;40;20057;-64
2022/06/29 00:46:57;;;;;;;3.10;2.90;;;;;;;18.03;62.49;101320.38;3570513;40;20095;-63
2022/06/29 00:49:25;;;;;;;6.32;3.40;;;;;;;18.03;62.51;101325.81;3569542;40;20051;-62
2022/06/29 00:52:09;;;;;;;6.15;3.35;;;;;;;17.78;62.85;101294.38;3569716;40;20060;-62
2022/06/29 00:54:53;;;;;;;8.45;3.50;;;;;;;17.94;63.10;101320.28;3569467;40;20127;-62
2022/06/29 00:57:24;;;;;;;7.32;3.55;;;;;;;17.90;62.21;101324.28;3571424;40;20092;-62
2022/06/29 00:59:54;;;;;;;5.70;3.45;;;;;;;17.84;63.10;101326.50;3569201;40;20055;-62
2022/06/29 01:02:23;;;;;;;5.00;3.72;;;;;;;17.63;63.15;101284.78;3568811;40;20052;-62
2022/06/29 01:04:51;;;;;;;3.63;3.33;;;;;;;17.76;63.34;101309.06;3568328;40;20076;-62
2022/06/29 01:07:24;;;;;;;5.05;3.60;;;;;;;17.51;63.86;101269.53;3570177;40;20048;-62
2022/06/29 01:09:49;;;;;;;5.75;3.60;;;;;;;17.66;64.65;101310.84;3569017;40;20053;-63
2022/06/29 01:12:15;;;;;;;5.07;3.55;;;;;;;17.62;64.77;101312.97;3570546;40;20048;-63
2022/06/29 01:14:47;;;;;;;4.57;3.70;;;;;;;17.60;64.42;101315.81;3571319;40;20064;-63
2022/06/29 01:17:13;;;;;;;6.00;3.50;;;;;;;17.58;64.14;101320.53;3569196;40;20134;-63
2022/06/29 01:19:41;;;;;;;6.55;3.70;;;;;;;17.54;64.46;101313.63;3571934;40;20057;-62
2022/06/29 01:22:13;;;;;;;4.10;3.63;;;;;;;17.52;64.89;101318.31;3569988;40;21763;-63
2022/06/29 01:24:44;;;;;;;4.28;3.35;;;;;;;17.51;65.09;101310.31;3569276;40;20127;-63
2022/06/29 01:27:11;;;;;;;6.75;4.30;;;;;;;17.50;64.61;101316.72;3571650;40;20045;-63
2022/06/29 01:29:37;;;;;;;3.88;3.55;;;;;;;17.47;64.34;101311.53;3569041;40;20055;-63
2022/06/29 01:32:03;;;;;;;4.63;3.97;;;;;;;17.44;64.84;101306.34;3568117;40;20045;-62
2022/06/29 01:34:30;;;;;;;7.25;4.80;;;;;;;17.39;64.48;101309.44;3572802;40;20065;-62
2022/06/29 01:36:58;;;;;;;6.68;4.18;;;;;;;17.35;64.80;101310.72;3568235;40;20053;-63
2022/06/29 01:39:26;;;;;;;6.53;4.00;;;;;;;17.32;65.26;101306.38;3570307;40;20068;-63
2022/06/29 01:41:52;;;;;;;4.78;4.07;;;;;;;17.22;65.32;101302.72;3569896;40;20143;-63
2022/06/29 01:44:19;;;;;;;6.78;4.47;;;;;;;17.26;65.08;101304.16;3569018;40;20044;-63
2022/06/29 01:46:45;;;;;;;6.68;4.43;;;;;;;17.25;65.32;101304.28;3567741;40;20130;-63
2022/06/29 01:49:11;;;;;;;7.28;4.50;;;;;;;17.05;65.44;101267.91;3569097;40;20880;-62
2022/06/29 01:51:37;;;;;;;6.03;4.20;;;;;;;17.17;65.56;101302.22;3568244;40;20187;-62
2022/06/29 01:54:03;;;;;;;7.60;4.20;;;;;;;17.15;65.79;101298.75;3566471;40;20053;-63
2022/06/29 01:56:29;;;;;;;5.15;3.90;;;;;;;17.10;66.33;101301.00;3567495;40;20142;-62
2022/06/29 01:58:54;;;;;;;5.70;4.22;;;;;;;17.05;66.35;101297.78;3567238;40;20053;-62
2022/06/29 02:01:20;;;;;;;6.90;4.50;;;;;;;17.01;66.02;101293.59;3569245;40;20057;-62
2022/06/29 02:03:46;;;;;;;7.78;4.57;;;;;;;16.99;67.39;101296.41;3566516;40;20359;-62
2022/06/29 02:06:12;;;;;;;6.13;4.57;;;;;;;16.98;66.96;101293.84;3568084;40;20423;-63
2022/06/29 02:08:38;;;;;;;5.30;4.53;;;;;;;16.92;66.79;101293.34;3569345;40;20093;-62
2022/06/29 02:11:04;;;;;;;4.95;4.55;;;;;;;16.90;66.96;101289.91;3569597;40;20049;-63
2022/06/29 02:13:30;;;;;;;7.22;5.00;;;;;;;16.92;67.21;101293.34;3568737;40;20049;-62
2022/06/29 02:15:56;;;;;;;8.52;4.50;;;;;;;16.91;67.58;101288.03;3568843;40;20389;-62
2022/06/29 02:18:21;;;;;;;5.95;4.80;;;;;;;16.90;67.58;101289.00;3568903;40;20057;-62
2022/06/29 02:20:47;;;;;;;7.00;4.95;;;;;;;16.90;66.85;101298.06;3568884;40;20069;-63
2022/06/29 02:23:13;;;;;;;5.38;4.88;;;;;;;16.73;67.14;101262.34;3568734;40;20494;-62
2022/06/29 02:25:39;;;;;;;5.72;5.00;;;;;;;16.82;66.89;101270.63;3567733;40;20045;-62
2022/06/29 02:28:05;;;;;;;7.10;5.20;;;;;;;16.96;66.98;101291.22;3567934;40;20057;-62
2022/06/29 02:36:01;;;;;;;7.60;4.85;;;;;;;16.75;66.86;101239.56;3568560;40;20469;-62
2022/06/29 02:38:26;;;;;;;7.43;4.80;;;;;;;17.11;66.51;101279.13;3570160;40;20068;-62
2022/06/29 02:40:52;;;;;;;7.72;5.35;;;;;;;17.06;65.91;101269.63;3556270;40;20064;-63
2022/06/29 02:43:17;;;;;;;8.85;5.28;;;;;;;17.16;66.26;101281.47;3567636;40;20069;-63
2022/06/29 02:45:43;;;;;;;6.93;4.95;;;;;;;17.16;65.81;101276.03;3567588;40;20052;-62
2022/06/29 02:48:09;;;;;;;7.50;5.00;;;;;;;17.18;65.38;101274.03;3565755;40;20426;-62
2022/06/29 02:50:34;;;;;;;9.75;5.50;;;;;;;17.13;65.46;101262.72;3567322;40;20104;-62
2022/06/29 02:53:00;;;;;;;8.15;5.25;;;;;;;17.20;64.88;101272.06;3566550;40;20056;-63
2022/06/29 02:55:26;;;;;;;5.47;4.93;;;;;;;17.14;64.94;101261.72;3567103;40;20347;-62
2022/06/29 02:57:51;;;;;;;7.10;5.20;;;;;;;17.22;64.95;101263.78;3566668;40;20403;-62
2022/06/29 03:00:17;;;;;;;9.07;5.03;;;;;;;17.22;65.78;101259.22;3568901;40;20056;-63
2022/06/29 03:02:43;;;;;;;7.15;5.10;;;;;;;17.21;65.00;101260.19;3569208;40;20048;-62
2022/06/29 03:05:10;;;;;;;12.45;5.38;;;;;;;17.21;65.47;101267.50;3569624;40;20164;-63
2022/06/29 03:07:35;;;;;;;6.65;5.30;;;;;;;17.18;65.35;101260.44;3568861;40;20276;-63
2022/06/29 03:10:01;;;;;;;8.43;5.20;;;;;;;17.16;65.22;101260.59;3569684;40;20068;-62
2022/06/29 03:12:28;;;;;;;9.45;5.55;;;;;;;17.14;65.65;101256.28;3569041;40;20244;-62
2022/06/29 03:14:53;;;;;;;8.25;5.65;;;;;;;17.13;65.37;101254.56;3570174;40;20055;-63
2022/06/29 03:17:19;;;;;;;6.72;5.00;;;;;;;17.12;65.41;101247.38;3569621;40;20053;-62
2022/06/29 03:19:45;;;;;;;7.55;5.60;;;;;;;17.00;65.71;101226.66;3568661;40;20767;-62
2022/06/29 03:22:10;;;;;;;6.28;5.68;;;;;;;17.11;66.15;101246.53;3568613;40;20076;-63
2022/06/29 03:24:36;;;;;;;8.77;5.85;;;;;;;17.12;66.28;101252.81;3568774;40;20060;-63
2022/06/29 03:27:02;;;;;;;8.82;5.28;;;;;;;17.10;66.48;101249.38;3568512;40;20060;-62
2022/06/29 03:29:27;;;;;;;8.73;5.95;;;;;;;17.07;66.01;101244.19;3569556;40;20080;-62
2022/06/29 03:31:53;;;;;;;7.68;5.78;;;;;;;17.05;66.28;101241.59;3570431;40;20069;-63
2022/06/29 03:34:18;;;;;;;7.22;5.55;;;;;;;17.08;66.42;101237.75;3571212;40;20063;-63
2022/06/29 03:36:44;;;;;;;11.50;5.53;;;;;;;17.05;66.34;101233.44;3570063;40;20064;-62
2022/06/29 03:39:10;;;;;;;8.77;5.65;;;;;;;17.07;66.45;101227.91;3570906;40;20049;-63
2022/06/29 03:41:35;;;;;;;9.75;5.30;;;;;;;16.36;65.93;101113.34;3567876;40;20056;-62
2022/06/29 03:44:02;;;;;;;7.20;5.90;;;;;;;17.05;66.43;101229.88;3565904;40;20056;-63
2022/06/29 03:46:28;;;;;;;8.57;5.45;;;;;;;16.94;66.92;101218.03;3570206;40;20149;-63
2022/06/29 03:48:53;;;;;;;8.57;5.60;;;;;;;16.99;66.16;101223.09;3570697;40;20068;-63
2022/06/29 03:51:19;;;;;;;9.45;5.63;;;;;;;16.97;66.63;101232.34;3568933;40;20052;-63
2022/06/29 03:53:45;;;;;;;9.85;5.75;;;;;;;16.92;67.01;101230.88;3570163;40;20092;-63
2022/06/29 03:56:10;;;;;;;7.55;5.80;;;;;;;16.92;67.40;101224.59;3567070;40;20896;-63
2022/06/29 03:58:36;;;;;;;7.47;5.53;;;;;;;16.90;67.08;101221.13;3570321;40;20049;-63
2022/06/29 04:01:02;;;;;;;7.57;5.43;;;;;;;16.85;67.74;101213.38;3567695;40;20049;-63
2022/06/29 04:03:27;;;;;;;7.63;5.75;;;;;;;16.50;67.67;101155.66;3568479;40;20079;-62
2022/06/29 04:05:53;;;;;;;9.60;5.60;;;;;;;16.78;67.83;101205.84;3570271;40;20126;-62
2022/06/29 04:08:18;;;;;;;8.73;5.53;;;;;;;16.82;68.33;101215.47;3569074;40;20404;-62
2022/06/29 04:10:44;;;;;;;6.80;5.20;;;;;;;16.80;68.40;101209.28;3569227;40;20056;-62
2022/06/29 04:13:09;;;;;;;8.15;5.95;;;;;;;16.79;68.46;101213.00;3568328;40;20118;-63
2022/06/29 04:15:35;;;;;;;8.80;5.90;;;;;;;16.75;68.98;101211.50;3567405;40;20119;-63
2022/06/29 04:18:02;;;;;;;8.98;6.28;;;;;;;16.74;68.87;101221.47;3567490;40;20497;-62
2022/06/29 04:23:13;;;;;;;10.25;6.35;;;;;;;16.76;69.21;101214.13;3569031;40;20130;-62
2022/06/29 04:25:38;;;;;;;11.32;7.07;;;;;;;16.75;69.17;101215.13;3568898;40;20052;-62
2022/06/29 04:28:06;;;;;;;8.98;6.60;;;;;;;16.68;70.04;101209.28;3567929;40;20459;-62
2022/06/29 04:30:33;;;;;;;9.43;6.75;;;;;;;16.76;70.37;101211.41;3567387;40;20067;-62
2022/06/29 04:32:59;;;;;;;9.27;6.80;;;;;;;16.02;69.56;101095.25;3566443;40;20064;-62
2022/06/29 04:35:24;;;;;;;10.75;6.82;;;;;;;16.82;69.71;101208.19;3567208;40;20049;-63
2022/06/29 04:37:50;;;;;;;9.43;6.65;;;;;;;16.85;69.35;101210.66;3569060;40;20134;-62
2022/06/29 04:40:16;;;;;;;10.82;6.88;;;;;;;16.89;69.71;101214.84;3568165;40;20069;-63
2022/06/29 04:42:41;;;;;;;8.68;6.38;;;;;;;16.92;70.02;101219.16;3568265;40;20069;-62
2022/06/29 04:46:19;;;;;;;10.90;6.32;;;;;;;16.97;70.01;101211.50;3567126;40;20069;-63
2022/06/29 04:47:53;;;;;;;8.75;6.38;;;;;;;17.03;68.22;101215.53;3567133;40;20114;-62
2022/06/29 04:50:19;;;;;;;8.88;6.28;;;;;;;17.08;68.52;101210.59;3573505;40;20049;-63
2022/06/29 04:52:45;;;;;;;9.82;5.82;;;;;;;17.09;68.39;101198.72;3571586;40;20057;-63
2022/06/29 04:55:10;;;;;;;12.93;6.55;;;;;;;17.18;68.25;101208.84;3567403;40;20064;-63
2022/06/29 04:57:36;;;;;;;10.35;6.35;;;;;;;17.24;68.46;101218.34;3567895;40;20067;-62
2022/06/29 05:00:03;;;;;;;7.75;6.15;;;;;;;17.28;68.28;101208.94;3568922;40;20312;-62
2022/06/29 05:02:28;;;;;;;8.40;6.45;;;;;;;17.31;67.30;101211.38;3568380;40;20354;-63
2022/06/29 05:04:54;;;;;;;9.63;5.75;;;;;;;17.38;66.57;101208.03;3568737;40;20071;-63
2022/06/29 05:07:19;;;;;;;8.98;5.90;;;;;;;17.45;66.16;101211.09;3566019;40;20065;-62
2022/06/29 05:09:45;;;;;;;10.38;6.22;;;;;;;17.52;64.93;101206.84;3567201;40;20130;-63
2022/06/29 05:12:11;;;;;;;8.70;6.13;;;;;;;17.58;65.26;101200.03;3566778;40;20053;-63
2022/06/29 05:14:37;;;;;;;10.35;5.85;;;;;;;17.68;65.00;101198.25;3570756;40;20068;-62
2022/06/29 05:17:03;;;;;;;11.30;6.15;;;;;;;17.76;64.93;101195.75;3567048;40;20414;-63
2022/06/29 05:19:28;;;;;;;9.80;6.10;;;;;;;17.85;65.26;101197.69;3566574;40;20068;-62
2022/06/29 05:21:54;;;;;;;9.18;5.60;;;;;;;17.92;64.69;101191.72;3565796;40;20076;-62
2022/06/29 05:24:19;;;;;;;9.05;5.90;;;;;;;18.04;64.75;101196.94;3566836;40;20080;-62
2022/06/29 05:26:45;;;;;;;9.30;5.60;;;;;;;18.13;64.44;101195.28;3567015;40;20056;-63
2022/06/29 05:29:11;;;;;;;8.02;6.20;;;;;;;18.18;63.08;101195.75;3566770;40;20061;-63
2022/06/29 05:31:36;;;;;;;12.02;5.90;;;;;;;18.27;63.00;101192.22;3568985;40;20059;-63
2022/06/29 05:34:02;;;;;;;10.63;6.05;;;;;;;18.39;62.47;101189.38;3566717;40;20052;-62
2022/06/29 05:36:27;;;;;;;10.60;5.80;;;;;;;18.46;63.15;101186.00;3566337;40;20312;-62
2022/06/29 05:38:53;;;;;;;7.72;5.40;;;;;;;18.52;62.87;101190.91;3566887;40;20099;-63
2022/06/29 05:41:18;;;;;;;10.27;5.18;;;;;;;18.62;62.43;101185.47;3567201;40;20053;-62
2022/06/29 05:43:49;;;;;;;9.85;5.18;;;;;;;18.69;63.52;101185.78;3567176;40;21538;-63
2022/06/29 05:46:15;;;;;;;7.53;5.30;;;;;;;18.71;61.92;101173.75;3569116;40;20606;-62
2022/06/29 05:48:41;;;;;;;8.98;5.25;;;;;;;18.90;62.16;101183.00;3568880;40;20064;-63
2022/06/29 05:51:07;;;;;;;68.03;53.00;;;;;;;19.01;61.88;101182.88;3566446;40;20061;-63
2022/06/29 05:53:32;;;;;;;87.13;63.17;;;;;;;19.10;62.04;101181.19;3568788;40;20055;-62
2022/06/29 05:55:58;;;;;;;43.65;33.30;;;;;;;19.19;61.28;101183.06;3569341;40;20060;-63
2022/06/29 05:58:23;;;;;;;10.98;7.32;;;;;;;19.27;60.72;101177.75;3570310;40;20057;-63
2022/06/29 06:00:49;;;;;;;8.70;7.30;;;;;;;19.45;61.08;101188.81;3567925;40;20052;-63
2022/06/29 06:03:15;;;;;;;7.80;4.93;;;;;;;19.57;59.30;101192.22;3569400;40;20269;-63
2022/06/29 06:05:41;;;;;;;14.32;5.22;;;;;;;19.70;58.52;101190.97;3571183;40;20057;-63
2022/06/29 06:08:07;;;;;;;9.25;4.60;;;;;;;19.86;58.72;101195.84;3569276;40;20092;-63
2022/06/29 06:10:33;;;;;;;8.80;4.47;;;;;;;19.73;58.69;101148.03;3568290;40;20131;-62
2022/06/29 06:12:58;;;;;;;12.23;5.07;;;;;;;20.13;57.30;101186.84;3568512;40;20052;-64
2022/06/29 06:15:24;;;;;;;37.40;30.80;;;;;;;20.27;56.32;101195.59;3567423;40;20059;-63
2022/06/29 06:17:49;;;;;;;70.05;49.35;;;;;;;20.40;56.56;101196.97;3567861;40;20068;-63
2022/06/29 06:20:15;;;;;;;48.33;33.53;;;;;;;20.60;56.59;101189.56;3570961;40;20056;-62
2022/06/29 06:22:41;;;;;;;40.85;30.83;;;;;;;20.72;55.38;101179.31;3568133;40;20044;-62
2022/06/29 06:25:07;;;;;;;6.93;4.80;;;;;;;20.90;55.42;101193.03;3569073;40;20076;-63
2022/06/29 06:27:32;;;;;;;10.57;5.78;;;;;;;21.05;54.88;101186.00;3569945;40;20372;-63
2022/06/29 06:29:58;;;;;;;7.78;4.13;;;;;;;21.23;54.05;101182.44;3567597;40;20065;-63
2022/06/29 06:32:23;;;;;;;8.07;4.70;;;;;;;21.43;54.07;101185.91;3571959;40;20414;-63
2022/06/29 06:34:49;;;;;;;8.15;4.72;;;;;;;21.63;52.57;101179.25;3570823;40;20060;-63
2022/06/29 06:37:15;;;;;;;6.65;3.40;;;;;;;21.83;52.54;101184.53;3569044;40;20164;-63
2022/06/29 06:41:21;;;;;;;13.65;3.30;;;;;;;22.01;52.45;101186.22;3568402;40;20041;-63
2022/06/29 06:42:27;;;;;;;6.43;2.80;;;;;;;22.24;51.20;101189.28;3569287;40;20125;-63
2022/06/29 06:44:53;;;;;;;4.80;2.83;;;;;;;22.41;49.62;101182.03;3568448;40;20057;-63
2022/06/29 06:47:18;;;;;;;12.38;3.10;;;;;;;22.49;48.69;101178.47;3566555;40;20057;-63
2022/06/29 06:49:44;;;;;;;4.07;2.53;;;;;;;22.69;48.23;101182.66;3568951;40;20372;-63
2022/06/29 06:52:09;;;;;;;9.77;2.72;;;;;;;22.82;48.15;101182.19;3568309;40;20073;-63
2022/06/29 06:54:35;;;;;;;3.38;2.40;;;;;;;22.98;47.52;101180.56;3568700;40;20387;-63
2022/06/29 06:57:00;;;;;;;4.70;2.38;;;;;;;23.13;46.57;101181.63;3566802;40;20064;-64
2022/06/29 06:59:26;;;;;;;4.35;2.22;;;;;;;23.25;46.96;101188.53;3572217;40;20045;-63
2022/06/29 07:01:51;;;;;;;5.38;2.30;;;;;;;23.43;45.66;101187.50;3569910;40;20063;-63
2022/06/29 07:04:17;;;;;;;6.00;2.80;;;;;;;23.56;44.51;101187.84;3570208;40;20071;-63
2022/06/29 07:06:43;;;;;;;4.00;1.98;;;;;;;23.68;45.00;101188.38;3568393;40;21936;-64
2022/06/29 07:09:08;;;;;;;6.78;2.92;;;;;;;23.79;45.29;101190.81;3567596;40;20407;-64
2022/06/29 07:11:34;;;;;;;8.13;2.72;;;;;;;23.96;46.19;101183.41;3567295;40;20052;-64
2022/06/29 07:13:59;;;;;;;2.63;2.10;;;;;;;24.17;45.15;101197.47;3567216;40;20051;-64
2022/06/29 07:16:25;;;;;;;3.88;2.13;;;;;;;24.31;44.27;101185.75;3570093;40;20414;-65
2022/06/29 07:18:51;;;;;;;4.57;2.28;;;;;;;24.20;42.54;101149.53;3567245;40;20059;-64
2022/06/29 07:21:16;;;;;;;4.03;2.33;;;;;;;24.54;42.84;101185.84;3571107;40;20032;-64
2022/06/29 07:23:42;;;;;;;5.32;2.30;;;;;;;24.67;42.14;101193.53;3569192;40;20294;-65
2022/06/29 07:26:08;;;;;;;3.47;2.35;;;;;;;24.82;41.53;101192.81;3571699;40;20076;-65
2022/06/29 07:28:33;;;;;;;2.90;2.25;;;;;;;24.93;41.52;101189.66;3570461;40;20056;-65
2022/06/29 07:30:59;;;;;;;3.40;1.92;;;;;;;25.04;40.84;101182.88;3569993;40;20060;-65
2022/06/29 07:33:24;;;;;;;2.75;1.90;;;;;;;25.14;41.56;101175.28;3571047;40;20048;-65
2022/06/29 07:35:50;;;;;;;3.78;2.00;;;;;;;25.35;42.85;101183.75;3567822;40;20059;-64
2022/06/29 07:38:16;;;;;;;4.18;1.92;;;;;;;25.46;41.28;101179.69;3569483;40;20068;-64
2022/06/29 07:40:41;;;;;;;3.47;1.80;;;;;;;25.56;40.20;101173.94;3561501;40;20052;-64
2022/06/29 07:43:07;;;;;;;5.40;1.95;;;;;;;25.65;41.11;101173.69;3568891;40;20118;-64
2022/06/29 07:45:33;;;;;;;3.75;2.03;;;;;;;25.80;40.28;101175.66;3571335;40;20052;-64
2022/06/29 07:47:58;;;;;;;3.03;1.80;;;;;;;25.99;40.35;101172.38;3561051;40;20816;-64
2022/06/29 07:50:24;;;;;;;2.75;1.70;;;;;;;26.14;39.93;101172.41;3571690;40;20392;-64
2022/06/29 07:52:49;;;;;;;7.85;2.08;;;;;;;26.27;40.26;101177.28;3570720;40;20087;-64
2022/06/29 07:55:15;;;;;;;3.65;1.90;;;;;;;26.44;39.17;101167.75;3571081;40;20060;-64
2022/06/29 07:57:41;;;;;;;3.67;2.00;;;;;;;26.58;38.91;101166.94;3570552;40;20545;-64
2022/06/29 08:00:07;;;;;;;2.47;1.70;;;;;;;26.62;38.08;101171.00;3569390;40;20068;-64
2022/06/29 08:02:33;;;;;;;3.92;1.88;;;;;;;26.64;37.17;101148.75;3573386;40;20399;-65
2022/06/29 08:05:00;;;;;;;5.57;1.95;;;;;;;26.65;38.54;101147.72;3569827;40;20051;-64
2022/06/29 08:07:26;;;;;;;4.43;2.00;;;;;;;26.92;38.11;101159.91;3570476;40;20088;-65
2022/06/29 08:09:53;;;;;;;4.03;1.38;;;;;;;27.07;37.80;101160.72;3569468;40;20064;-64
2022/06/29 08:12:19;;;;;;;1.95;1.60;;;;;;;27.10;36.03;101153.97;3572664;40;20055;-65
2022/06/29 08:14:45;;;;;;;3.25;1.60;;;;;;;27.14;36.32;101155.31;3571468;40;20142;-64
2022/06/29 08:17:13;;;;;;;3.80;1.67;;;;;;;27.01;37.04;101155.97;3569348;40;20372;-64
2022/06/29 08:19:39;;;;;;;4.82;1.40;;;;;;;26.92;38.46;101159.91;3571245;40;20396;-64
2022/06/29 08:22:04;;;;;;;2.85;1.35;;;;;;;27.13;36.74;101161.84;3569874;40;20061;-65
2022/06/29 08:24:30;;;;;;;2.28;1.60;;;;;;;27.34;37.42;101158.31;3568581;40;20103;-65
2022/06/29 08:26:55;;;;;;;535.65;479.65;;;;;;;27.67;37.34;101166.03;3568350;40;20072;-65
2022/06/29 08:29:21;;;;;;;216.00;177.77;;;;;;;27.94;35.53;101159.72;3572431;40;20069;-64
2022/06/29 08:31:46;;;;;;;290.30;205.43;;;;;;;28.11;36.08;101157.47;3568857;40;20408;-65
2022/06/29 08:34:25;;;;;;;24.23;19.77;;;;;;;28.17;34.99;101158.59;3569819;40;20053;-65
2022/06/29 08:36:50;;;;;;;3.65;2.35;;;;;;;28.17;35.97;101158.59;3572674;40;20295;-65
2022/06/29 08:39:17;;;;;;;3.13;1.77;;;;;;;28.33;36.28;101149.13;3570465;40;20060;-65
2022/06/29 08:41:43;;;;;;;2.95;1.50;;;;;;;28.53;36.75;101161.16;3572247;40;20391;-65
2022/06/29 08:44:09;;;;;;;2.22;1.45;;;;;;;28.61;33.56;101160.16;3571265;40;20389;-65
2022/06/29 08:46:35;;;;;;;2.83;1.75;;;;;;;28.65;36.03;101144.84;3573512;40;20056;-65
2022/06/29 08:49:03;;;;;;;2.25;1.50;;;;;;;28.90;35.12;101143.22;3569629;40;20393;-65
2022/06/29 08:51:34;;;;;;;5.35;2.15;;;;;;;29.02;34.19;101151.81;3570097;40;20048;-67
2022/06/29 08:54:05;;;;;;;2.00;1.60;;;;;;;28.89;33.68;101148.97;3568030;40;20053;-64
2022/06/29 08:56:34;;;;;;;7.93;1.70;;;;;;;28.80;34.12;101153.84;3569799;40;20049;-64
2022/06/29 08:59:03;;;;;;;2.55;1.17;;;;;;;28.77;33.56;101151.50;3570964;40;20061;-64
2022/06/29 09:01:29;;;;;;;6.40;2.53;;;;;;;28.88;32.98;101150.03;3572631;40;20457;-64
2022/06/29 09:03:55;;;;;;;1.90;1.80;;;;;;;29.06;33.87;101155.03;3570472;40;20068;-65
2022/06/29 09:06:21;;;;;;;3.17;1.73;;;;;;;29.14;32.94;101147.34;3572747;40;20291;-65
2022/06/29 09:08:46;;;;;;;1.90;1.42;;;;;;;29.32;34.73;101157.84;3573859;40;20064;-66
2022/06/29 09:11:46;;;;;;;3.67;1.52;;;;;;;29.52;32.15;101145.94;3561200;40;20061;-66
2022/06/29 09:14:22;;;;;;;2.42;1.60;;;;;;;29.72;32.68;101145.97;3562606;40;20119;-66
2022/06/29 09:17:04;;;;;;;1.73;1.10;;;;;;;29.91;32.15;101147.91;3569685;40;20414;-67
2022/06/29 09:19:53;;;;;;;1.30;1.20;;;;;;;30.04;31.18;101136.78;3570450;40;20080;-66
2022/06/29 09:22:19;;;;;;;3.17;1.20;;;;;;;30.30;31.07;101154.47;3573537;40;20319;-67
2022/06/29 09:24:45;;;;;;;3.80;1.23;;;;;;;30.43;31.35;101148.88;3572084;40;20048;-66
2022/06/29 09:27:12;;;;;;;2.17;1.30;;;;;;;30.47;29.88;101141.81;3571418;40;20591;-66
2022/06/29 09:29:41;;;;;;;1.63;1.20;;;;;;;30.48;30.36;101148.19;3569620;40;20086;-66
2022/06/29 09:32:19;;;;;;;3.72;1.60;;;;;;;30.56;30.33;101136.88;3569617;40;20138;-66
2022/06/29 09:34:52;;;;;;;1.98;1.17;;;;;;;30.33;30.95;101125.44;3569994;40;20059;-66
2022/06/29 09:37:23;;;;;;;5.03;1.80;;;;;;;30.48;30.12;101137.09;3568290;40;20052;-67
2022/06/29 09:39:52;;;;;;;2.65;1.35;;;;;;;30.55;30.72;101142.66;3573413;40;20059;-66
2022/06/29 09:42:20;;;;;;;3.85;3.50;;;;;;;30.66;30.12;101144.75;3571013;40;20061;-66
2022/06/29 09:44:48;;;;;;;5.03;1.52;;;;;;;30.81;32.32;101145.34;3571701;40;20059;-67
2022/06/29 09:47:20;;;;;;;1.50;1.15;;;;;;;31.02;29.30;101141.41;3570378;40;20064;-66
2022/06/29 09:49:49;;;;;;;5.15;1.88;;;;;;;31.13;29.51;101143.47;3569994;40;20064;-67
2022/06/29 09:52:15;;;;;;;3.28;1.67;;;;;;;31.27;29.30;101137.81;3570753;40;20072;-66
2022/06/29 09:54:59;;;;;;;2.35;1.20;;;;;;;31.44;28.51;101144.56;3570537;40;20088;-66
2022/06/29 09:57:30;;;;;;;1.42;1.17;;;;;;;31.47;29.40;101133.00;3569683;40;20158;-66
2022/06/29 10:02:54;;;;;;;1.92;1.20;;;;;;;31.40;28.27;101140.56;3561137;40;20374;-67
2022/06/29 10:05:54;;;;;;;4.00;1.38;;;;;;;31.59;30.52;101133.97;3569527;40;20110;-66
2022/06/29 10:08:11;;;;;;;3.40;2.00;;;;;;;31.68;27.57;101131.75;3566521;40;20049;-67
2022/06/29 10:10:37;;;;;;;5.47;4.68;;;;;;;31.73;27.68;101137.50;3570333;40;20119;-67
2022/06/29 10:16:27;;;;;;;1.75;1.17;;;;;;;31.73;27.61;101137.50;3569545;40;20046;-66
2022/06/29 10:19:20;;;;;;;;;;;;;;;31.88;27.31;101134.38;3576472;40;20070;-66
2022/06/29 10:21:46;;;;;;;2.10;1.17;;;;;;;32.16;28.65;101130.25;3569700;40;20312;-67
2022/06/29 10:24:17;;;;;;;1.75;1.30;;;;;;;32.30;28.48;101126.25;3573323;40;20060;-66
2022/06/29 10:26:45;;;;;;;3.25;1.17;;;;;;;32.39;28.31;101119.31;3575928;40;20048;-66
2022/06/29 10:29:22;;;;;;;2.20;1.27;;;;;;;32.27;26.38;101126.72;3570840;40;20162;-67
2022/06/29 10:31:57;;;;;;;1.23;1.13;;;;;;;31.87;26.77;101121.53;3568459;40;21809;-67
2022/06/29 10:34:28;;;;;;;3.15;1.20;;;;;;;31.64;27.44;101119.38;3573847;40;20079;-66
2022/06/29 10:37:09;;;;;;;1.70;1.30;;;;;;;31.50;27.99;101112.25;3572453;40;20409;-67
2022/06/29 10:39:49;;;;;;;2.28;1.10;;;;;;;31.71;28.14;101111.84;3567794;40;20125;-67
2022/06/29 10:45:16;;;;;;;2.08;1.40;;;;;;;31.50;28.27;101104.75;3576163;40;20059;-66
2022/06/29 10:47:48;;;;;;;2.90;1.10;;;;;;;31.03;29.59;101104.22;3575934;40;20044;-66
2022/06/29 10:50:20;;;;;;;1.45;1.35;;;;;;;30.70;29.35;101094.13;3573603;40;20111;-66
2022/06/29 10:52:48;;;;;;;3.15;1.20;;;;;;;30.43;29.24;101092.53;3576090;40;20045;-66
2022/06/29 10:55:16;;;;;;;2.30;1.30;;;;;;;30.15;30.92;101098.38;3570974;40;20123;-66
2022/06/29 10:57:45;;;;;;;5.18;1.55;;;;;;;29.92;30.61;101093.31;3572993;40;20061;-66
2022/06/29 11:00:29;;;;;;;4.75;3.17;;;;;;;29.74;30.84;101086.50;3573827;40;20092;-66
2022/06/29 11:02:56;;;;;;;2.92;2.00;;;;;;;29.62;30.42;101090.97;3569781;40;20061;-66
2022/06/29 11:05:23;;;;;;;3.00;1.65;;;;;;;29.39;31.79;101081.16;3575241;40;20060;-66
2022/06/29 11:13:30;;;;;;;2.78;1.52;;;;;;;29.63;32.54;101081.63;3568766;40;20163;-65
2022/06/29 11:15:59;;;;;;;7.22;1.80;;;;;;;29.61;32.07;101078.19;3569657;40;20052;-66
2022/06/29 11:18:32;;;;;;;3.40;1.55;;;;;;;30.00;32.08;101091.16;3572220;40;20057;-67
2022/06/29 11:21:04;;;;;;;1.40;1.30;;;;;;;30.33;30.94;101086.63;3569505;40;20076;-66
2022/06/29 11:23:35;;;;;;;2.90;1.37;;;;;;;30.38;30.20;101084.00;3570751;40;20287;-66
2022/06/29 11:26:05;;;;;;;1.77;1.10;;;;;;;30.05;31.12;101066.38;3567403;40;20094;-66
2022/06/29 11:28:33;;;;;;;2.33;1.20;;;;;;;30.02;31.02;101085.38;3573077;40;20056;-65
2022/06/29 11:31:12;;;;;;;2.42;1.58;;;;;;;30.05;31.39;101079.41;3570977;40;20296;-66
2022/06/29 11:33:46;;;;;;;1.73;1.40;;;;;;;30.33;31.21;101069.97;3568532;40;20053;-65
2022/06/29 11:36:18;;;;;;;3.42;1.40;;;;;;;30.81;31.60;101066.78;3571757;40;20285;-66
2022/06/29 11:38:47;;;;;;;1.65;1.30;;;;;;;31.21;31.35;101065.44;3570347;40;20048;-65
2022/06/29 11:43:03;;;;;;;1.55;1.45;;;;;;;31.35;30.08;101071.75;3570885;40;20378;-66
2022/06/29 11:44:27;;;;;;;2.28;1.38;;;;;;;30.96;30.54;101070.94;3572708;40;20057;-65
2022/06/29 11:46:55;;;;;;;2.65;1.67;;;;;;;30.73;31.06;101067.84;3571222;40;20048;-65
2022/06/29 11:49:38;;;;;;;1.83;1.23;;;;;;;30.67;31.08;101077.03;3571176;40;20068;-66